Time;durP1;ratioP1;P1;durP2;ratioP2;P2;SDS_P1;SDS_P2;PMS_P1;PMS_P2;Temp;Humidity;BMP_temperature;BMP_pressure;BME280_temperature;BME280_humidity;BME280_pressure;Samples;Min_cycle;Max_cycle;Signal;HPM_P1;HPM_P2
2022/07/31 12:23:48;;;;;;;2.35;1.17;;;;;;;;;;4894222;29;20091;-95
2022/07/31 12:26:22;;;;;;;4.50;1.40;;;;;;;;;;4898792;29;20041;-94
2022/07/31 12:29:10;;;;;;;3.55;1.50;;;;;;;;;;4883826;29;20037;-88
2022/07/31 12:31:56;;;;;;;5.45;1.58;;;;;;;;;;4897857;29;20557;-59
2022/07/31 12:34:29;;;;;;;3.70;1.30;;;;;;;;;;4896869;29;20031;-58
2022/07/31 12:37:05;;;;;;;2.58;1.42;;;;;;;;;;4897317;29;20033;-60
2022/07/31 12:39:32;;;;;;;3.22;1.38;;;;;;;;;;4894156;29;20120;-60
2022/07/31 12:41:58;;;;;;;2.72;1.58;;;;;;;;;;4889387;29;20053;-60
2022/07/31 12:44:24;;;;;;;2.78;1.13;;;;;;;;;;4879295;29;20150;-82
2022/07/31 12:46:50;;;;;;;4.60;1.38;;;;;;;;;;4865156;29;20424;-90
2022/07/31 12:49:17;;;;;;;3.63;1.30;;;;;;;;;;4878636;29;20022;-83
2022/07/31 12:51:43;;;;;;;6.72;1.85;;;;;;;;;;4864110;29;20041;-87
2022/07/31 12:54:10;;;;;;;3.10;1.30;;;;;;;;;;4882557;29;20033;-89
2022/07/31 12:56:37;;;;;;;2.15;1.20;;;;;;;;;;4897350;29;20044;-85
2022/07/31 12:59:03;;;;;;;2.20;1.30;;;;;;;;;;4896978;29;20029;-85
2022/07/31 13:01:29;;;;;;;2.95;1.48;;;;;;;;;;4896864;29;20088;-84
2022/07/31 13:03:57;;;;;;;2.13;1.40;;;;;;;;;;4896767;29;20063;-83
2022/07/31 13:06:23;;;;;;;5.07;1.45;;;;;;;;;;4902476;29;20040;-85
2022/07/31 13:08:49;;;;;;;4.95;1.63;;;;;;;;;;4882506;29;20069;-75
2022/07/31 13:11:16;;;;;;;2.90;1.45;;;;;;;;;;4878217;29;20029;-75
2022/07/31 13:13:42;;;;;;;23.42;4.63;;;;;;;;;;4896363;29;20025;-76
2022/07/31 13:16:08;;;;;;;15.65;4.43;;;;;;;;;;4896643;29;20124;-78
2022/07/31 13:18:36;;;;;;;2.58;1.30;;;;;;;;;;4896592;29;20462;-79
2022/07/31 13:21:02;;;;;;;3.78;1.35;;;;;;;;;;4896132;29;20144;-78
2022/07/31 13:23:29;;;;;;;3.63;1.50;;;;;;;;;;4881950;29;20044;-78
2022/07/31 13:25:56;;;;;;;2.38;1.30;;;;;;;;;;4896189;29;20036;-76
2022/07/31 13:28:22;;;;;;;4.70;1.27;;;;;;;;;;4881917;29;20025;-76
2022/07/31 13:30:48;;;;;;;5.72;1.40;;;;;;;;;;4896102;29;20116;-75
2022/07/31 13:33:14;;;;;;;3.63;1.35;;;;;;;;;;4896201;29;20039;-75
2022/07/31 13:35:41;;;;;;;4.20;1.50;;;;;;;;;;4895823;29;20092;-76
2022/07/31 13:38:07;;;;;;;2.88;1.45;;;;;;;;;;4895629;29;20025;-75
2022/07/31 13:43:18;;;;;;;2.63;1.45;;;;;;;;;;4882081;29;20165;-87
2022/07/31 13:45:45;;;;;;;3.05;1.33;;;;;;;;;;4895798;29;20065;-77
2022/07/31 13:48:11;;;;;;;4.57;1.30;;;;;;;;;;4895835;29;20033;-79
2022/07/31 13:50:38;;;;;;;4.72;1.60;;;;;;;;;;4896025;29;20506;-76
2022/07/31 13:53:04;;;;;;;3.83;1.52;;;;;;;;;;4895901;29;20072;-80
2022/07/31 13:55:30;;;;;;;4.57;1.30;;;;;;;;;;4895783;29;20120;-76
2022/07/31 13:57:57;;;;;;;7.53;1.48;;;;;;;;;;4895885;29;20028;-82
2022/07/31 14:00:23;;;;;;;6.85;1.48;;;;;;;;;;4881484;29;20029;-81
2022/07/31 14:02:50;;;;;;;2.65;1.40;;;;;;;;;;4881441;29;20025;-77
2022/07/31 14:05:16;;;;;;;2.42;1.33;;;;;;;;;;4895601;29;20029;-75
2022/07/31 14:07:42;;;;;;;3.40;1.23;;;;;;;;;;4881257;29;20033;-75
2022/07/31 14:10:08;;;;;;;2.30;1.45;;;;;;;;;;4895734;29;20025;-82
2022/07/31 14:12:34;;;;;;;4.95;1.25;;;;;;;;;;4895402;29;20132;-82
2022/07/31 14:15:03;;;;;;;2.50;1.58;;;;;;;;;;4881261;29;20025;-84
2022/07/31 14:17:29;;;;;;;2.60;1.30;;;;;;;;;;4895429;29;20044;-84
2022/07/31 14:19:55;;;;;;;2.92;1.33;;;;;;;;;;4880919;29;20145;-84
2022/07/31 14:22:21;;;;;;;3.08;1.30;;;;;;;;;;4895769;29;20387;-83
2022/07/31 14:24:49;;;;;;;3.65;1.67;;;;;;;;;;4895630;29;20037;-85
2022/07/31 14:27:15;;;;;;;1.95;1.17;;;;;;;;;;4881529;29;20481;-83
2022/07/31 14:29:42;;;;;;;2.30;1.33;;;;;;;;;;4895378;29;20025;-82
2022/07/31 14:32:08;;;;;;;3.90;1.30;;;;;;;;;;4887903;29;20136;-82
2022/07/31 14:34:34;;;;;;;6.47;1.50;;;;;;;;;;4864223;29;20515;-82
2022/07/31 14:37:00;;;;;;;2.95;1.45;;;;;;;;;;4876457;29;20033;-82
2022/07/31 14:39:26;;;;;;;4.65;1.58;;;;;;;;;;4862323;29;20033;-84
2022/07/31 14:41:52;;;;;;;8.00;1.45;;;;;;;;;;4876502;29;20032;-83
2022/07/31 14:44:18;;;;;;;4.65;1.48;;;;;;;;;;4893071;29;20060;-82
2022/07/31 14:46:45;;;;;;;5.15;1.80;;;;;;;;;;4909762;29;20029;-83
2022/07/31 14:49:11;;;;;;;3.30;1.70;;;;;;;;;;4895043;29;20056;-80
2022/07/31 14:51:38;;;;;;;2.67;1.52;;;;;;;;;;4880413;29;20045;-78
2022/07/31 14:54:04;;;;;;;5.47;1.40;;;;;;;;;;4880583;29;20029;-81
2022/07/31 14:56:30;;;;;;;3.53;1.50;;;;;;;;;;4894877;29;20029;-78
2022/07/31 14:58:57;;;;;;;3.05;1.55;;;;;;;;;;4894984;29;20033;-76
2022/07/31 15:01:23;;;;;;;4.22;1.55;;;;;;;;;;4894612;29;20028;-86
2022/07/31 15:03:49;;;;;;;3.17;1.65;;;;;;;;;;4880213;29;20058;-75
2022/07/31 15:06:16;;;;;;;3.22;1.50;;;;;;;;;;4880355;29;20398;-76
2022/07/31 15:08:42;;;;;;;3.00;1.50;;;;;;;;;;4894565;29;20486;-79
2022/07/31 15:11:08;;;;;;;3.25;1.55;;;;;;;;;;4880581;29;20039;-75
2022/07/31 15:13:34;;;;;;;2.53;1.50;;;;;;;;;;4880389;29;20041;-77
2022/07/31 15:16:01;;;;;;;3.70;1.67;;;;;;;;;;4880080;29;20454;-75
2022/07/31 15:18:27;;;;;;;4.10;1.67;;;;;;;;;;4894467;29;20446;-78
2022/07/31 15:20:53;;;;;;;2.67;1.50;;;;;;;;;;4894226;29;20057;-76
2022/07/31 15:23:19;;;;;;;4.75;1.60;;;;;;;;;;4880060;29;20073;-81
2022/07/31 15:25:46;;;;;;;6.82;1.50;;;;;;;;;;4894305;29;20039;-81
2022/07/31 15:28:12;;;;;;;3.30;1.73;;;;;;;;;;4880244;29;20036;-85
2022/07/31 15:30:38;;;;;;;3.42;1.60;;;;;;;;;;4894351;29;20431;-80
2022/07/31 15:33:04;;;;;;;4.82;1.67;;;;;;;;;;4894006;29;20037;-83
2022/07/31 15:35:30;;;;;;;2.60;1.75;;;;;;;;;;4879986;29;20029;-79
2022/07/31 15:38:02;;;;;;;3.75;1.50;;;;;;;;;;4880425;29;20068;-78
2022/07/31 15:40:28;;;;;;;3.90;1.50;;;;;;;;;;4894294;29;20029;-81
2022/07/31 15:42:55;;;;;;;3.80;1.40;;;;;;;;;;4879835;29;20033;-78
2022/07/31 15:45:21;;;;;;;4.38;1.75;;;;;;;;;;4880081;29;20052;-74
2022/07/31 15:47:47;;;;;;;3.92;1.67;;;;;;;;;;4879769;29;20505;-78
2022/07/31 15:50:14;;;;;;;2.97;1.80;;;;;;;;;;4894036;29;20442;-81
2022/07/31 15:52:41;;;;;;;2.53;1.50;;;;;;;;;;4893964;29;20549;-78
2022/07/31 15:55:07;;;;;;;3.55;1.55;;;;;;;;;;4894025;29;20394;-78
2022/07/31 15:57:34;;;;;;;4.13;1.45;;;;;;;;;;4893946;29;20037;-78
2022/07/31 16:00:00;;;;;;;5.00;1.45;;;;;;;;;;4879408;29;20021;-77
2022/07/31 16:02:26;;;;;;;2.70;1.80;;;;;;;;;;4893943;29;20061;-78
2022/07/31 16:04:53;;;;;;;3.85;1.65;;;;;;;;;;4879538;29;20386;-77
2022/07/31 16:07:19;;;;;;;2.88;1.77;;;;;;;;;;4893900;29;20033;-75
2022/07/31 16:09:49;;;;;;;2.33;1.65;;;;;;;;;;4893808;29;20072;-75
2022/07/31 16:12:15;;;;;;;3.30;1.80;;;;;;;;;;4880034;29;20072;-75
2022/07/31 16:14:42;;;;;;;2.92;1.85;;;;;;;;;;4893823;29;20077;-75
2022/07/31 16:17:08;;;;;;;3.33;1.52;;;;;;;;;;4880073;29;20530;-77
2022/07/31 16:19:34;;;;;;;3.13;1.88;;;;;;;;;;4893721;29;20056;-76
2022/07/31 16:22:01;;;;;;;3.45;1.50;;;;;;;;;;4893504;29;20080;-76
2022/07/31 16:24:27;;;;;;;3.08;1.63;;;;;;;;;;4880005;29;20029;-78
2022/07/31 16:26:53;;;;;;;3.13;1.60;;;;;;;;;;4893660;29;20124;-77
2022/07/31 16:29:22;;;;;;;2.50;1.80;;;;;;;;;;4893555;29;20123;-76
2022/07/31 16:31:49;;;;;;;2.45;1.55;;;;;;;;;;4879311;29;20104;-75
2022/07/31 16:34:16;;;;;;;4.28;1.80;;;;;;;;;;4879330;29;20032;-75
2022/07/31 16:36:43;;;;;;;4.85;1.95;;;;;;;;;;4893701;29;20064;-75
2022/07/31 16:39:09;;;;;;;3.78;1.80;;;;;;;;;;4879453;29;20029;-76
2022/07/31 16:41:37;;;;;;;2.40;1.80;;;;;;;;;;4893571;29;20074;-75
2022/07/31 16:44:04;;;;;;;4.13;1.90;;;;;;;;;;4893672;29;20029;-78
2022/07/31 16:46:30;;;;;;;2.85;1.77;;;;;;;;;;4893801;29;20048;-75
2022/07/31 16:48:56;;;;;;;2.97;1.50;;;;;;;;;;4893583;29;20152;-75
2022/07/31 16:51:22;;;;;;;3.72;2.10;;;;;;;;;;4893377;29;20029;-78
2022/07/31 16:53:48;;;;;;;2.92;2.08;;;;;;;;;;4893506;29;20070;-75
2022/07/31 16:56:15;;;;;;;3.75;1.75;;;;;;;;;;4878946;29;20025;-75
2022/07/31 16:58:42;;;;;;;3.15;2.00;;;;;;;;;;4896026;29;20025;-77
2022/07/31 17:01:08;;;;;;;2.55;1.70;;;;;;;;;;4896763;29;20033;-76
2022/07/31 17:03:34;;;;;;;2.40;1.80;;;;;;;;;;4895417;29;20486;-76
2022/07/31 17:06:02;;;;;;;3.97;2.00;;;;;;;;;;4895153;29;20037;-75
2022/07/31 17:08:28;;;;;;;2.83;1.88;;;;;;;;;;4894850;29;20378;-76
2022/07/31 17:10:54;;;;;;;3.38;1.90;;;;;;;;;;4895046;29;20021;-78
2022/07/31 17:13:21;;;;;;;3.30;1.90;;;;;;;;;;4894933;29;20038;-75
2022/07/31 17:15:47;;;;;;;2.85;2.00;;;;;;;;;;4896206;29;20025;-76
2022/07/31 17:18:13;;;;;;;2.88;2.10;;;;;;;;;;4896507;29;20041;-75
2022/07/31 17:20:45;;;;;;;3.78;1.95;;;;;;;;;;4886488;29;20391;-78
2022/07/31 17:23:12;;;;;;;2.90;1.97;;;;;;;;;;4877707;29;20033;-75
2022/07/31 17:25:38;;;;;;;2.70;1.80;;;;;;;;;;4863187;29;20285;-76
2022/07/31 17:28:04;;;;;;;3.00;1.77;;;;;;;;;;4882669;29;20454;-94
2022/07/31 17:30:31;;;;;;;3.10;2.05;;;;;;;;;;4881619;29;20077;-91
2022/07/31 17:32:57;;;;;;;3.08;1.98;;;;;;;;;;4877783;29;20045;-75
2022/07/31 17:35:23;;;;;;;2.80;1.90;;;;;;;;;;4877432;29;20030;-78
2022/07/31 17:37:49;;;;;;;3.80;1.98;;;;;;;;;;4877495;29;20039;-78
2022/07/31 17:40:17;;;;;;;3.65;1.83;;;;;;;;;;4877501;29;20085;-78
2022/07/31 17:42:43;;;;;;;26.40;2.38;;;;;;;;;;4863791;29;20097;-79
2022/07/31 17:45:09;;;;;;;4.13;2.22;;;;;;;;;;4877463;29;20046;-76
2022/07/31 17:47:35;;;;;;;4.60;2.17;;;;;;;;;;4877426;29;20040;-75
2022/07/31 17:50:01;;;;;;;5.53;2.10;;;;;;;;;;4877528;29;20029;-78
2022/07/31 17:52:27;;;;;;;4.35;2.22;;;;;;;;;;4877090;29;20053;-79
2022/07/31 17:54:54;;;;;;;3.45;2.03;;;;;;;;;;4877382;29;20432;-82
2022/07/31 17:57:28;;;;;;;3.88;2.10;;;;;;;;;;4884393;29;20060;-78
2022/07/31 17:59:54;;;;;;;4.13;2.20;;;;;;;;;;4896120;29;20029;-87
2022/07/31 18:02:20;;;;;;;10.32;2.50;;;;;;;;;;4881384;29;20052;-83
2022/07/31 18:04:46;;;;;;;5.70;2.33;;;;;;;;;;4895608;29;20025;-83
2022/07/31 18:07:16;;;;;;;4.57;2.30;;;;;;;;;;4895804;29;20426;-80
2022/07/31 18:09:44;;;;;;;4.00;2.38;;;;;;;;;;4894714;29;20029;-83
2022/07/31 18:12:11;;;;;;;6.10;2.85;;;;;;;;;;4895627;29;20136;-79
2022/07/31 18:14:37;;;;;;;3.45;2.40;;;;;;;;;;4895548;29;20495;-79
2022/07/31 18:17:03;;;;;;;3.92;2.75;;;;;;;;;;4881227;29;20119;-79
2022/07/31 18:19:29;;;;;;;3.75;2.50;;;;;;;;;;4881222;29;20025;-79
2022/07/31 18:21:56;;;;;;;3.42;2.38;;;;;;;;;;4894310;29;20056;-79
2022/07/31 18:24:22;;;;;;;3.85;2.55;;;;;;;;;;4895315;29;20081;-84
2022/07/31 18:26:49;;;;;;;3.72;2.45;;;;;;;;;;4895185;29;20185;-84
2022/07/31 18:29:15;;;;;;;3.38;2.38;;;;;;;;;;4895391;29;20435;-77
2022/07/31 18:31:42;;;;;;;3.20;2.50;;;;;;;;;;4880476;29;20153;-77
2022/07/31 18:34:10;;;;;;;4.10;2.72;;;;;;;;;;4894575;29;20032;-77
2022/07/31 18:36:36;;;;;;;4.95;2.92;;;;;;;;;;4895112;29;20026;-77
2022/07/31 18:39:03;;;;;;;4.00;2.60;;;;;;;;;;4895010;29;20033;-78
2022/07/31 18:41:29;;;;;;;3.75;2.70;;;;;;;;;;4879061;29;20026;-78
2022/07/31 18:43:56;;;;;;;5.72;2.67;;;;;;;;;;4883777;29;20543;-76
2022/07/31 18:46:23;;;;;;;4.07;2.67;;;;;;;;;;4868371;29;20021;-73
2022/07/31 18:48:50;;;;;;;5.38;3.50;;;;;;;;;;4872321;29;20489;-75
2022/07/31 18:51:16;;;;;;;4.88;2.78;;;;;;;;;;4886281;29;20124;-74
2022/07/31 18:53:42;;;;;;;4.78;3.03;;;;;;;;;;4869744;29;20044;-74
2022/07/31 18:56:08;;;;;;;4.90;2.92;;;;;;;;;;4895240;29;20037;-75
2022/07/31 18:58:34;;;;;;;3.58;2.65;;;;;;;;;;4894261;29;20590;-76
2022/07/31 19:01:01;;;;;;;3.53;2.65;;;;;;;;;;4880226;29;20389;-79
2022/07/31 19:03:28;;;;;;;4.53;2.92;;;;;;;;;;4895485;29;20025;-78
2022/07/31 19:05:54;;;;;;;4.30;2.80;;;;;;;;;;4897149;29;20029;-74
2022/07/31 19:08:30;;;;;;;3.30;2.58;;;;;;;;;;4885302;29;20013;-78
2022/07/31 19:10:56;;;;;;;5.28;2.60;;;;;;;;;;4901078;29;20028;-74
2022/07/31 19:13:22;;;;;;;4.60;2.80;;;;;;;;;;4894414;29;20041;-78
2022/07/31 19:15:51;;;;;;;4.32;2.95;;;;;;;;;;4880940;29;20386;-78
2022/07/31 19:18:18;;;;;;;8.07;2.90;;;;;;;;;;4894856;29;20399;-74
2022/07/31 19:20:44;;;;;;;4.80;2.70;;;;;;;;;;4894482;29;20418;-76
2022/07/31 19:23:10;;;;;;;3.17;2.53;;;;;;;;;;4880186;29;20028;-74
2022/07/31 19:25:37;;;;;;;3.38;2.60;;;;;;;;;;4878779;29;20037;-80
2022/07/31 19:28:04;;;;;;;4.65;2.83;;;;;;;;;;4892824;29;20025;-76
2022/07/31 19:30:30;;;;;;;3.50;2.90;;;;;;;;;;4895613;29;20124;-75
2022/07/31 19:32:56;;;;;;;4.22;3.20;;;;;;;;;;4884070;29;20037;-74
2022/07/31 19:35:23;;;;;;;3.13;2.55;;;;;;;;;;4883127;29;20080;-80
2022/07/31 19:38:22;;;;;;;4.20;2.97;;;;;;;;;;4874373;29;20021;-80
2022/07/31 19:40:48;;;;;;;4.22;2.92;;;;;;;;;;4839401;29;20081;-74
2022/07/31 19:43:15;;;;;;;4.13;3.00;;;;;;;;;;4879821;29;20044;-75
2022/07/31 19:45:41;;;;;;;3.80;3.03;;;;;;;;;;4847648;29;20029;-75
2022/07/31 19:48:08;;;;;;;5.20;3.00;;;;;;;;;;4888200;29;20052;-77
2022/07/31 19:50:34;;;;;;;4.57;2.97;;;;;;;;;;4877902;29;20037;-75
2022/07/31 19:53:00;;;;;;;3.58;2.72;;;;;;;;;;4877537;29;20040;-75
2022/07/31 19:55:26;;;;;;;5.80;3.08;;;;;;;;;;4877717;29;20041;-75
2022/07/31 19:57:52;;;;;;;5.25;3.25;;;;;;;;;;4877408;29;20052;-78
2022/07/31 20:00:18;;;;;;;3.88;3.03;;;;;;;;;;4877653;29;20037;-75
2022/07/31 20:02:46;;;;;;;3.67;3.00;;;;;;;;;;4877465;29;20036;-75
2022/07/31 20:05:12;;;;;;;4.07;3.22;;;;;;;;;;4877489;29;20092;-75
2022/07/31 20:07:38;;;;;;;5.88;3.83;;;;;;;;;;4877385;29;20065;-75
2022/07/31 20:10:06;;;;;;;4.85;3.63;;;;;;;;;;4877473;29;20029;-75
2022/07/31 20:12:32;;;;;;;5.85;3.20;;;;;;;;;;4874939;29;20053;-75
2022/07/31 20:14:59;;;;;;;4.80;2.90;;;;;;;;;;4875005;29;20041;-75
2022/07/31 20:17:25;;;;;;;4.65;3.00;;;;;;;;;;4860877;29;20048;-75
2022/07/31 20:19:51;;;;;;;3.42;2.75;;;;;;;;;;4860612;29;20025;-75
2022/07/31 20:22:18;;;;;;;4.80;3.13;;;;;;;;;;4875113;29;20458;-75
2022/07/31 20:24:44;;;;;;;4.65;2.95;;;;;;;;;;4874670;29;20109;-73
2022/07/31 20:27:10;;;;;;;3.63;2.63;;;;;;;;;;4875075;29;20029;-75
2022/07/31 20:29:36;;;;;;;3.85;2.70;;;;;;;;;;4875027;29;20040;-75
2022/07/31 20:32:02;;;;;;;3.90;2.70;;;;;;;;;;4875127;29;20065;-75
2022/07/31 20:34:28;;;;;;;4.20;3.10;;;;;;;;;;4878771;29;20041;-75
2022/07/31 20:36:54;;;;;;;5.25;2.80;;;;;;;;;;4864462;29;20089;-75
2022/07/31 20:39:21;;;;;;;3.63;2.70;;;;;;;;;;4864471;29;20068;-75
2022/07/31 20:41:47;;;;;;;3.90;3.05;;;;;;;;;;4864902;29;20029;-75
2022/07/31 20:44:13;;;;;;;5.65;2.58;;;;;;;;;;4878513;29;20029;-75
2022/07/31 20:46:40;;;;;;;3.38;2.35;;;;;;;;;;4863049;29;20025;-78
2022/07/31 20:49:06;;;;;;;3.53;2.75;;;;;;;;;;4878382;29;20037;-78
2022/07/31 20:51:33;;;;;;;3.47;2.90;;;;;;;;;;4878307;29;20029;-75
2022/07/31 20:53:59;;;;;;;4.97;2.83;;;;;;;;;;4878405;29;20501;-75
2022/07/31 20:56:26;;;;;;;4.50;2.50;;;;;;;;;;4878863;29;20100;-78
2022/07/31 20:58:53;;;;;;;6.35;3.10;;;;;;;;;;4883331;29;20029;-75
2022/07/31 21:01:20;;;;;;;3.85;2.90;;;;;;;;;;4882871;29;20096;-75
2022/07/31 21:03:49;;;;;;;5.43;2.90;;;;;;;;;;4882485;29;20437;-78
2022/07/31 21:06:15;;;;;;;2.92;2.63;;;;;;;;;;4899078;29;20037;-74
2022/07/31 21:08:41;;;;;;;4.28;3.45;;;;;;;;;;4904277;29;20394;-78
2022/07/31 21:11:08;;;;;;;4.72;3.55;;;;;;;;;;4904120;29;20160;-75
2022/07/31 21:13:35;;;;;;;5.18;3.63;;;;;;;;;;4881974;29;20044;-75
2022/07/31 21:16:01;;;;;;;4.90;3.60;;;;;;;;;;4896963;29;20033;-75
2022/07/31 21:18:30;;;;;;;5.05;3.70;;;;;;;;;;4902549;29;20037;-75
2022/07/31 21:20:56;;;;;;;4.53;3.58;;;;;;;;;;4902793;29;20106;-77
2022/07/31 21:23:26;;;;;;;4.53;3.78;;;;;;;;;;4906138;29;20025;-74
2022/07/31 21:25:53;;;;;;;6.82;3.92;;;;;;;;;;4904881;29;20065;-75
2022/07/31 21:28:19;;;;;;;4.25;3.60;;;;;;;;;;4906296;29;20017;-75
2022/07/31 21:30:46;;;;;;;5.53;3.85;;;;;;;;;;4903845;29;20062;-75
2022/07/31 21:33:13;;;;;;;6.10;4.00;;;;;;;;;;4884793;29;20075;-75
2022/07/31 21:35:40;;;;;;;5.32;3.30;;;;;;;;;;4908499;29;20029;-75
2022/07/31 21:38:07;;;;;;;5.05;3.13;;;;;;;;;;4882399;29;20497;-75
2022/07/31 21:40:34;;;;;;;4.53;3.55;;;;;;;;;;4896116;29;20048;-75
2022/07/31 21:43:01;;;;;;;4.53;3.65;;;;;;;;;;4896077;29;20176;-77
2022/07/31 21:45:27;;;;;;;4.68;3.55;;;;;;;;;;4882284;29;20028;-75
2022/07/31 21:47:54;;;;;;;5.22;3.63;;;;;;;;;;4882297;29;20056;-76
2022/07/31 21:50:21;;;;;;;5.00;3.50;;;;;;;;;;4896035;29;20029;-75
2022/07/31 21:52:47;;;;;;;4.22;3.47;;;;;;;;;;4881584;29;20041;-75
2022/07/31 21:55:14;;;;;;;5.28;4.10;;;;;;;;;;4895950;29;20032;-76
2022/07/31 21:57:40;;;;;;;5.07;3.38;;;;;;;;;;4882075;29;20025;-75
2022/07/31 22:00:07;;;;;;;5.25;3.42;;;;;;;;;;4881443;29;20099;-76
2022/07/31 22:02:37;;;;;;;4.88;3.17;;;;;;;;;;4895762;29;20040;-76
2022/07/31 22:07:49;;;;;;;3.75;3.33;;;;;;;;;;4881700;29;20096;-75
2022/07/31 22:10:16;;;;;;;5.47;3.40;;;;;;;;;;4881490;29;20502;-76
2022/07/31 22:12:43;;;;;;;6.65;3.40;;;;;;;;;;4895687;29;20483;-80
2022/07/31 22:15:10;;;;;;;3.72;3.22;;;;;;;;;;4895699;29;20546;-76
2022/07/31 22:17:36;;;;;;;6.88;3.70;;;;;;;;;;4895490;29;20033;-76
2022/07/31 22:20:02;;;;;;;5.07;3.75;;;;;;;;;;4881011;29;20085;-76
2022/07/31 22:22:29;;;;;;;4.72;3.47;;;;;;;;;;4895469;29;20048;-76
2022/07/31 22:24:56;;;;;;;5.25;3.65;;;;;;;;;;4895393;29;20056;-79
2022/07/31 22:30:08;;;;;;;4.00;3.50;;;;;;;;;;4881145;29;20109;-76
2022/07/31 22:32:35;;;;;;;6.47;3.60;;;;;;;;;;4880641;29;20088;-80
2022/07/31 22:35:02;;;;;;;6.13;3.63;;;;;;;;;;4880807;29;20060;-76
2022/07/31 22:37:28;;;;;;;4.10;3.67;;;;;;;;;;4895177;29;20041;-75
2022/07/31 22:39:54;;;;;;;4.50;3.83;;;;;;;;;;4895143;29;20081;-76
2022/07/31 22:42:20;;;;;;;4.78;3.60;;;;;;;;;;4894980;29;20132;-75
2022/07/31 22:44:46;;;;;;;7.22;3.83;;;;;;;;;;4895081;29;20075;-75
2022/07/31 22:47:13;;;;;;;4.20;3.78;;;;;;;;;;4894981;29;20443;-76
2022/07/31 22:49:39;;;;;;;5.30;4.55;;;;;;;;;;4880599;29;20112;-75
2022/07/31 22:52:06;;;;;;;5.45;3.97;;;;;;;;;;4894968;29;20037;-75
2022/07/31 22:54:32;;;;;;;5.55;3.88;;;;;;;;;;4894631;29;20418;-80
2022/07/31 22:56:59;;;;;;;5.47;4.63;;;;;;;;;;4894505;29;20124;-76
2022/07/31 22:59:25;;;;;;;5.78;4.25;;;;;;;;;;4894695;29;20033;-75
2022/07/31 23:01:51;;;;;;;4.95;4.03;;;;;;;;;;4894588;29;20029;-76
2022/07/31 23:04:17;;;;;;;4.15;3.75;;;;;;;;;;4894685;29;20174;-75
2022/07/31 23:06:43;;;;;;;5.53;4.20;;;;;;;;;;4894597;29;20044;-75
2022/07/31 23:09:09;;;;;;;6.55;5.13;;;;;;;;;;4894637;29;20037;-76
2022/07/31 23:11:35;;;;;;;10.05;5.75;;;;;;;;;;4880777;29;20049;-80
2022/07/31 23:14:01;;;;;;;7.10;5.55;;;;;;;;;;4894514;29;20033;-76
2022/07/31 23:16:29;;;;;;;8.13;5.70;;;;;;;;;;4894550;29;20223;-76
2022/07/31 23:18:55;;;;;;;6.05;5.38;;;;;;;;;;4880650;29;20028;-75
2022/07/31 23:21:21;;;;;;;5.88;5.28;;;;;;;;;;4894194;29;20082;-76
2022/07/31 23:23:48;;;;;;;8.20;5.72;;;;;;;;;;4879915;29;20043;-80
2022/07/31 23:26:14;;;;;;;6.38;5.70;;;;;;;;;;4880578;29;20036;-79
2022/07/31 23:28:40;;;;;;;5.78;5.15;;;;;;;;;;4894484;29;20115;-76
2022/07/31 23:31:06;;;;;;;6.13;5.53;;;;;;;;;;4894237;29;20029;-74
2022/07/31 23:33:32;;;;;;;6.90;5.47;;;;;;;;;;4879955;29;20025;-76
2022/07/31 23:35:59;;;;;;;6.32;4.68;;;;;;;;;;4880396;29;20032;-76
2022/07/31 23:38:26;;;;;;;6.07;5.25;;;;;;;;;;4880160;29;20033;-79
2022/07/31 23:40:55;;;;;;;5.45;4.95;;;;;;;;;;4894160;29;20029;-75
2022/07/31 23:43:21;;;;;;;5.55;4.90;;;;;;;;;;4894157;29;20103;-75
2022/07/31 23:45:47;;;;;;;6.05;4.88;;;;;;;;;;4894163;29;20112;-76
2022/07/31 23:48:16;;;;;;;7.00;6.28;;;;;;;;;;4879720;29;20036;-76
2022/07/31 23:50:43;;;;;;;7.25;4.53;;;;;;;;;;4879726;29;20137;-76
2022/07/31 23:53:10;;;;;;;7.30;5.18;;;;;;;;;;4893982;29;20025;-76
2022/07/31 23:55:36;;;;;;;6.78;5.03;;;;;;;;;;4893914;29;20037;-79
2022/07/31 23:58:02;;;;;;;5.63;5.13;;;;;;;;;;4879635;29;20367;-76
